createdAt,value
2019-06-20T00:01:59.476Z,16.07
2019-06-20T00:04:29.668Z,14.55
2019-06-20T00:06:59.866Z,14.33
2019-06-20T00:09:30.238Z,14.87
2019-06-20T00:12:00.330Z,14.70
2019-06-20T00:14:30.368Z,16.17
2019-06-20T00:17:00.510Z,16.12
2019-06-20T00:19:30.667Z,16.20
2019-06-20T00:22:01.815Z,16.60
2019-06-20T00:24:31.937Z,15.78
2019-06-20T00:27:01.937Z,15.20
2019-06-20T00:29:32.053Z,17.45
2019-06-20T00:32:02.060Z,17.05
2019-06-20T00:34:35.046Z,17.57
2019-06-20T00:37:05.097Z,16.60
2019-06-20T00:39:35.291Z,16.75
2019-06-20T00:42:05.607Z,16.65
2019-06-20T00:44:35.622Z,16.87
2019-06-20T00:47:05.856Z,16.40
2019-06-20T00:49:35.958Z,16.05
2019-06-20T00:52:06.106Z,17.55
2019-06-20T00:54:36.270Z,15.80
2019-06-20T00:57:06.494Z,15.65
2019-06-20T00:59:36.650Z,15.88
2019-06-20T01:02:06.955Z,16.02
2019-06-20T01:04:36.959Z,15.70
2019-06-20T01:07:07.389Z,15.23
2019-06-20T01:09:37.676Z,16.67
2019-06-20T01:12:07.855Z,16.05
2019-06-20T01:14:37.982Z,15.65
2019-06-20T01:17:08.217Z,13.83
2019-06-20T01:19:38.277Z,16.75
2019-06-20T01:22:08.520Z,15.78
2019-06-20T01:24:38.691Z,16.80
2019-06-20T01:27:09.020Z,16.05
2019-06-20T01:29:40.496Z,14.87
2019-06-20T01:32:10.682Z,16.25
2019-06-20T01:34:40.820Z,15.95
2019-06-20T01:37:11.069Z,15.03
2019-06-20T01:39:42.470Z,15.30
2019-06-20T01:42:12.970Z,15.93
2019-06-20T01:44:43.287Z,16.42
2019-06-20T01:47:13.466Z,15.45
2019-06-20T01:49:43.813Z,15.05
2019-06-20T01:52:14.063Z,15.95
2019-06-20T01:54:44.130Z,16.57
2019-06-20T01:57:14.175Z,16.37
2019-06-20T01:59:44.395Z,15.65
2019-06-20T02:02:14.603Z,17.35
2019-06-20T02:04:44.551Z,15.95
2019-06-20T02:07:14.871Z,16.75
2019-06-20T02:09:44.902Z,17.82
2019-06-20T02:12:15.065Z,17.27
2019-06-20T02:14:45.211Z,17.17
2019-06-20T02:17:15.481Z,17.73
2019-06-20T02:19:45.605Z,18.00
2019-06-20T02:22:16.762Z,17.87
2019-06-20T02:24:46.830Z,15.85
2019-06-20T02:27:16.987Z,16.32
2019-06-20T02:29:47.038Z,15.63
2019-06-20T02:32:17.174Z,18.00
2019-06-20T02:34:47.314Z,16.02
2019-06-20T02:37:17.440Z,16.02
2019-06-20T02:39:47.357Z,16.37
2019-06-20T02:42:17.344Z,16.25
2019-06-20T02:44:47.362Z,16.85
2019-06-20T02:47:17.358Z,16.30
2019-06-20T02:49:47.475Z,15.75
2019-06-20T02:52:18.325Z,15.38
2019-06-20T02:54:48.731Z,14.80
2019-06-20T02:57:18.818Z,15.90
2019-06-20T02:59:48.905Z,16.07
2019-06-20T03:02:18.943Z,16.42
2019-06-20T03:04:49.105Z,16.20
2019-06-20T03:07:19.076Z,15.45
2019-06-20T03:09:49.143Z,15.83
2019-06-20T03:12:19.094Z,13.68
2019-06-20T03:14:49.203Z,14.40
2019-06-20T03:17:19.254Z,15.23
2019-06-20T03:19:49.303Z,15.60
2019-06-20T03:22:19.315Z,16.05
2019-06-20T03:24:49.282Z,15.25
2019-06-20T03:27:19.460Z,15.65
2019-06-20T03:29:49.744Z,15.93
2019-06-20T03:32:19.907Z,15.00
2019-06-20T03:34:50.112Z,16.40
2019-06-20T03:37:20.338Z,14.80
2019-06-20T03:39:50.329Z,15.88
2019-06-20T03:42:20.315Z,15.00
2019-06-20T03:45:01.628Z,15.53
2019-06-20T03:47:22.039Z,16.02
2019-06-20T03:49:51.986Z,15.15
2019-06-20T03:52:21.930Z,14.78
2019-06-20T03:54:51.972Z,17.00
2019-06-20T03:57:21.900Z,17.05
2019-06-20T03:59:51.884Z,19.55
2019-06-20T04:02:21.982Z,17.87
2019-06-20T04:04:51.874Z,15.75
2019-06-20T04:07:21.816Z,16.75
2019-06-20T04:09:52.818Z,17.30
2019-06-20T04:12:23.017Z,16.85
2019-06-20T04:14:53.067Z,16.57
2019-06-20T04:17:23.171Z,16.25
2019-06-20T04:19:53.324Z,16.52
2019-06-20T04:22:23.647Z,15.70
2019-06-20T04:24:53.755Z,15.68
2019-06-20T04:27:23.872Z,17.02
2019-06-20T04:29:54.041Z,15.80
2019-06-20T04:32:25.314Z,15.98
2019-06-20T04:34:58.505Z,15.70
2019-06-20T04:37:28.547Z,16.20
2019-06-20T04:39:58.588Z,15.18
2019-06-20T04:42:29.427Z,14.87
2019-06-20T04:45:01.290Z,13.90
2019-06-20T04:47:31.573Z,14.05
2019-06-20T04:50:01.880Z,13.55
2019-06-20T04:52:32.178Z,12.98
2019-06-20T04:55:02.463Z,12.70
2019-06-20T04:57:32.580Z,12.37
2019-06-20T05:00:02.912Z,12.85
2019-06-20T05:02:36.435Z,12.03
2019-06-20T05:05:08.261Z,11.15
2019-06-20T05:07:38.354Z,12.35
2019-06-20T05:10:08.574Z,12.10
2019-06-20T05:12:38.652Z,11.78
2019-06-20T05:15:09.011Z,12.00
2019-06-20T05:17:39.333Z,10.88
2019-06-20T05:20:10.158Z,11.93
2019-06-20T05:22:40.145Z,12.20
2019-06-20T05:25:11.219Z,12.40
2019-06-20T05:27:41.452Z,12.30
2019-06-20T05:30:12.394Z,11.28
2019-06-20T05:32:42.788Z,12.13
2019-06-20T05:35:15.123Z,10.63
2019-06-20T05:37:45.299Z,11.60
2019-06-20T05:40:18.140Z,10.30
2019-06-20T05:42:48.387Z,10.93
2019-06-20T05:45:18.887Z,11.80
2019-06-20T05:47:49.912Z,11.97
2019-06-20T05:50:23.503Z,12.15
2019-06-20T05:52:53.507Z,12.23
2019-06-20T05:55:23.587Z,11.70
2019-06-20T05:57:53.739Z,12.30
2019-06-20T06:00:24.007Z,11.63
2019-06-20T06:02:54.233Z,11.75
2019-06-20T06:05:24.424Z,11.57
2019-06-20T06:07:54.599Z,12.10
2019-06-20T06:10:24.693Z,12.10
2019-06-20T06:12:56.165Z,11.40
2019-06-20T06:15:26.334Z,11.03
2019-06-20T06:17:56.584Z,11.70
2019-06-20T06:20:26.674Z,12.65
2019-06-20T06:22:56.859Z,12.15
2019-06-20T06:25:27.045Z,11.55
2019-06-20T06:27:57.282Z,13.22
2019-06-20T06:30:27.703Z,11.97
2019-06-20T06:32:57.925Z,13.10
2019-06-20T06:35:28.188Z,11.75
2019-06-20T06:37:58.364Z,12.47
2019-06-20T06:40:28.944Z,12.75
2019-06-20T06:43:00.742Z,12.30
2019-06-20T06:45:31.375Z,12.25
2019-06-20T06:48:01.456Z,13.95
2019-06-20T06:50:31.717Z,14.25
2019-06-20T06:53:01.875Z,15.50
2019-06-20T06:55:31.974Z,16.17
2019-06-20T06:58:02.215Z,14.85
2019-06-20T07:00:32.376Z,14.00
2019-06-20T07:03:04.894Z,12.88
2019-06-20T07:05:36.176Z,12.73
2019-06-20T07:08:06.414Z,13.13
2019-06-20T07:10:36.637Z,11.90
2019-06-20T07:13:07.051Z,12.58
2019-06-20T07:15:37.326Z,12.75
2019-06-20T07:18:07.650Z,12.13
2019-06-20T07:20:37.823Z,13.22
2019-06-20T07:23:07.854Z,13.53
2019-06-20T07:25:37.999Z,14.25
2019-06-20T07:28:08.238Z,14.78
2019-06-20T07:30:38.505Z,14.58
2019-06-20T07:33:08.970Z,12.95
2019-06-20T07:35:41.857Z,12.82
2019-06-20T07:38:11.119Z,13.40
2019-06-20T07:40:41.291Z,13.00
2019-06-20T07:43:11.516Z,14.23
2019-06-20T07:45:41.754Z,13.62
2019-06-20T07:48:11.803Z,14.07
2019-06-20T07:50:42.050Z,14.23
2019-06-20T07:53:12.346Z,13.43
2019-06-20T07:55:42.506Z,13.58
2019-06-20T07:58:13.571Z,14.70
2019-06-20T08:00:43.807Z,13.65
2019-06-20T08:03:13.984Z,13.80
2019-06-20T08:05:44.276Z,14.35
2019-06-20T08:08:14.544Z,14.87
2019-06-20T08:10:44.623Z,14.03
2019-06-20T08:13:14.992Z,13.50
2019-06-20T08:15:45.188Z,13.95
2019-06-20T08:18:15.559Z,13.05
2019-06-20T08:20:46.075Z,13.83
2019-06-20T08:23:16.197Z,13.22
2019-06-20T08:25:46.549Z,14.85
2019-06-20T08:28:16.807Z,14.98
2019-06-20T08:30:47.135Z,16.42
2019-06-20T08:33:17.680Z,14.63
2019-06-20T08:35:47.997Z,12.98
2019-06-20T08:38:19.628Z,13.70
2019-06-20T08:40:49.831Z,12.80
2019-06-20T08:43:19.927Z,12.98
2019-06-20T08:45:50.341Z,13.38
2019-06-20T08:48:20.525Z,13.00
2019-06-20T08:50:53.767Z,11.95
2019-06-20T08:53:24.307Z,12.53
2019-06-20T08:55:55.982Z,12.43
2019-06-20T08:58:26.723Z,11.83
2019-06-20T09:00:59.653Z,12.55
2019-06-20T09:03:30.760Z,11.80
2019-06-20T09:08:31.649Z,11.30
2019-06-20T09:11:01.888Z,11.57
2019-06-20T09:13:32.339Z,14.13
2019-06-20T09:16:03.116Z,12.53
2019-06-20T09:18:33.703Z,11.95
2019-06-20T09:21:04.628Z,12.70
2019-06-20T09:23:59.966Z,11.00
2019-06-20T09:26:31.158Z,11.73
2019-06-20T09:29:12.053Z,12.43
2019-06-20T09:31:52.427Z,12.05
2019-06-20T09:34:38.831Z,11.00
2019-06-20T09:37:09.498Z,12.68
2019-06-20T09:39:39.826Z,11.78
2019-06-20T09:42:10.257Z,13.00
2019-06-20T09:44:40.538Z,12.05
2019-06-20T09:47:10.754Z,12.23
2019-06-20T09:49:42.958Z,13.58
2019-06-20T09:52:13.167Z,12.23
2019-06-20T09:54:43.321Z,12.68
2019-06-20T09:57:13.843Z,12.60
2019-06-20T09:59:56.237Z,12.13
2019-06-20T10:02:16.019Z,13.83
2019-06-20T10:04:47.864Z,15.35
2019-06-20T10:07:18.369Z,14.63
2019-06-20T10:09:49.831Z,12.88
2019-06-20T10:12:20.318Z,13.03
2019-06-20T10:14:51.566Z,12.15
2019-06-20T10:17:23.037Z,19.05
2019-06-20T10:19:54.094Z,13.50
2019-06-20T10:22:35.739Z,14.23
2019-06-20T10:25:06.317Z,13.22
2019-06-20T10:27:36.842Z,12.90
2019-06-20T10:30:14.370Z,14.28
2019-06-20T10:32:39.465Z,12.85
2019-06-20T10:35:10.448Z,12.47
2019-06-20T10:37:40.987Z,12.37
2019-06-20T10:40:15.207Z,12.25
2019-06-20T10:42:46.331Z,13.98
2019-06-20T10:45:18.452Z,13.43
2019-06-20T10:47:49.156Z,13.03
2019-06-20T10:50:21.195Z,15.55
2019-06-20T10:52:52.012Z,13.10
2019-06-20T10:55:22.783Z,44.45
2019-06-20T10:57:53.514Z,25.23
2019-06-20T11:00:32.920Z,16.82
2019-06-20T11:02:57.850Z,14.13
2019-06-20T11:05:28.329Z,17.30
2019-06-20T11:07:58.872Z,15.60
2019-06-20T11:10:30.375Z,12.55
2019-06-20T11:13:03.616Z,23.65
2019-06-20T11:15:39.277Z,14.07
2019-06-20T11:18:11.247Z,13.80
2019-06-20T11:20:42.762Z,13.65
2019-06-20T11:23:15.463Z,15.90
2019-06-20T11:25:46.611Z,13.60
2019-06-20T11:28:16.868Z,12.85
2019-06-20T11:30:58.092Z,12.58
2019-06-20T11:33:19.138Z,12.30
2019-06-20T11:35:55.011Z,12.35
2019-06-20T11:38:25.313Z,12.88
2019-06-20T11:40:55.660Z,11.78
2019-06-20T11:43:30.693Z,13.13
2019-06-20T11:46:00.973Z,11.75
2019-06-20T11:48:32.348Z,11.33
2019-06-20T11:51:09.813Z,12.05
2019-06-20T12:41:25.469Z,5.08
2019-06-20T13:34:05.164Z,4.00
2019-06-20T13:36:59.809Z,4.60
2019-06-20T13:39:32.764Z,4.58
2019-06-20T13:42:03.027Z,4.08
2019-06-20T13:44:33.528Z,3.67
2019-06-20T13:47:03.914Z,3.70
2019-06-20T13:49:34.236Z,3.33
2019-06-20T13:52:04.347Z,3.25
2019-06-20T13:54:34.636Z,3.12
2019-06-20T13:57:05.455Z,3.08
2019-06-20T13:59:35.747Z,2.85
2019-06-20T14:02:09.131Z,3.25
2019-06-20T14:04:41.572Z,3.60
2019-06-20T14:16:26.973Z,3.67
2019-06-20T14:18:58.830Z,3.08
2019-06-20T14:31:56.429Z,4.53
2019-06-20T14:34:26.517Z,11.40
2019-06-20T14:36:56.684Z,3.95
2019-06-20T14:39:27.033Z,4.12
2019-06-20T14:41:57.480Z,4.17
2019-06-20T14:44:27.695Z,4.17
2019-06-20T14:46:59.411Z,4.72
2019-06-20T14:49:29.991Z,3.80
2019-06-20T14:52:00.038Z,3.83
2019-06-20T14:54:30.528Z,4.17
2019-06-20T14:57:00.895Z,4.97
2019-06-20T14:59:31.622Z,3.45
2019-06-20T15:02:01.916Z,3.25
2019-06-20T15:04:32.105Z,3.60
2019-06-20T15:07:04.289Z,3.33
2019-06-20T15:09:35.382Z,3.27
2019-06-20T15:12:06.949Z,3.17
2019-06-20T15:14:37.270Z,3.80
2019-06-20T15:17:09.229Z,5.00
2019-06-20T15:19:39.513Z,3.45
2019-06-20T15:22:10.324Z,3.52
2019-06-20T15:24:40.617Z,3.30
2019-06-20T15:27:10.792Z,3.45
2019-06-20T15:29:40.981Z,3.75
2019-06-20T15:32:11.153Z,3.65
2019-06-20T15:34:41.491Z,3.40
2019-06-20T15:37:16.292Z,3.75
2019-06-20T15:39:51.766Z,3.67
2019-06-20T15:42:23.949Z,3.62
2019-06-20T15:45:05.391Z,4.10
2019-06-20T15:47:35.937Z,3.95
2019-06-20T15:50:07.651Z,4.00
2019-06-20T15:52:38.595Z,3.45
2019-06-20T15:55:09.857Z,4.03
2019-06-20T15:57:43.761Z,3.70
2019-06-20T16:00:16.030Z,3.58
2019-06-20T16:02:47.734Z,4.15
2019-06-20T16:05:17.999Z,4.28
2019-06-20T16:07:49.209Z,4.10
2019-06-20T16:10:19.981Z,3.45
2019-06-20T16:12:50.781Z,3.50
2019-06-20T16:15:23.376Z,3.72
2019-06-20T16:17:54.051Z,4.45
2019-06-20T16:20:28.181Z,4.35
2019-06-20T16:22:58.853Z,5.10
2019-06-20T16:25:35.503Z,5.55
2019-06-20T16:28:07.495Z,4.65
2019-06-20T16:30:41.204Z,4.00
2019-06-20T16:33:24.619Z,5.37
2019-06-20T16:35:47.789Z,5.17
2019-06-20T16:38:21.625Z,8.88
2019-06-20T16:40:58.526Z,5.67
2019-06-20T16:43:31.745Z,5.28
2019-06-20T16:46:03.098Z,5.75
2019-06-20T16:48:38.668Z,6.47
2019-06-20T16:51:09.428Z,5.10
2019-06-20T16:53:39.709Z,6.35
2019-06-20T16:56:17.011Z,4.40
2019-06-20T16:58:47.374Z,5.28
2019-06-20T17:01:24.616Z,6.40
2019-06-20T17:04:00.747Z,5.10
2019-06-20T17:06:33.368Z,5.47
2019-06-20T17:09:08.991Z,5.55
2019-06-20T17:11:42.811Z,6.30
2019-06-20T17:14:13.891Z,6.17
2019-06-20T17:16:49.982Z,5.83
2019-06-20T17:19:32.859Z,6.17
2019-06-20T17:22:03.197Z,6.85
2019-06-20T17:24:33.412Z,7.28
2019-06-20T17:27:03.830Z,6.10
2019-06-20T17:29:34.206Z,5.65
2019-06-20T17:32:04.704Z,6.03
2019-06-20T17:34:35.019Z,5.55
2019-06-20T17:37:05.233Z,5.67
2019-06-20T17:39:35.399Z,5.25
2019-06-20T17:42:05.466Z,5.40
2019-06-20T17:44:35.589Z,5.42
2019-06-20T17:47:06.058Z,5.78
2019-06-20T17:49:36.433Z,5.83
2019-06-20T17:52:06.544Z,6.28
2019-06-20T17:54:36.762Z,6.28
2019-06-20T17:57:07.186Z,7.00
2019-06-20T17:59:37.575Z,6.20
2019-06-20T18:02:08.025Z,6.97
2019-06-20T18:04:38.351Z,6.33
2019-06-20T18:07:12.228Z,6.22
2019-06-20T18:09:44.624Z,5.78
2019-06-20T18:12:16.703Z,5.47
2019-06-20T18:14:48.325Z,5.70
2019-06-20T18:17:18.597Z,6.72
2019-06-20T18:19:48.851Z,6.00
2019-06-20T18:22:19.482Z,5.53
2019-06-20T18:24:52.473Z,5.40
2019-06-20T18:27:23.992Z,5.92
2019-06-20T18:29:54.323Z,5.17
2019-06-20T18:32:25.481Z,5.30
2019-06-20T18:35:01.946Z,5.55
2019-06-20T18:37:31.771Z,5.10
2019-06-20T18:40:12.716Z,5.97
2019-06-20T18:42:44.685Z,6.75
2019-06-20T18:45:16.154Z,6.42
2019-06-20T18:47:55.261Z,5.75
2019-06-20T18:50:28.368Z,6.22
2019-06-20T18:52:58.936Z,5.40
2019-06-20T18:55:31.036Z,6.15
2019-06-20T18:58:01.727Z,5.35
2019-06-20T19:00:37.882Z,5.10
2019-06-20T19:03:13.141Z,4.83
2019-06-20T19:05:45.631Z,4.92
2019-06-20T19:08:19.515Z,4.58
2019-06-20T19:10:51.711Z,4.95
2019-06-20T19:13:22.662Z,5.47
2019-06-20T19:16:00.252Z,4.87
2019-06-20T19:18:34.876Z,4.92
2019-06-20T19:21:05.557Z,4.78
2019-06-20T19:23:37.840Z,5.42
2019-06-20T19:26:08.436Z,5.53
2019-06-20T19:28:38.801Z,5.05
2019-06-20T19:31:10.304Z,5.00
2019-06-20T19:33:40.786Z,5.00
2019-06-20T19:36:14.457Z,5.03
2019-06-20T19:38:47.144Z,5.28
2019-06-20T19:41:21.151Z,5.15
2019-06-20T19:43:52.457Z,5.28
2019-06-20T19:46:24.136Z,5.00
2019-06-20T19:49:02.388Z,5.65
2019-06-20T19:51:35.302Z,7.05
2019-06-20T19:54:06.842Z,6.80
2019-06-20T19:56:38.046Z,7.33
2019-06-20T19:59:10.313Z,6.83
2019-06-20T20:01:45.152Z,6.95
2019-06-20T20:04:23.246Z,6.42
2019-06-20T20:06:57.215Z,5.92
2019-06-20T20:09:33.154Z,8.10
2019-06-20T20:12:04.075Z,7.58
2019-06-20T20:14:43.130Z,6.55
2019-06-20T20:17:25.784Z,4.80
2019-06-20T20:19:58.387Z,4.55
2019-06-20T20:22:29.987Z,4.87
2019-06-20T20:25:02.025Z,4.65
2019-06-20T20:27:36.544Z,5.35
2019-06-20T20:30:08.165Z,6.00
2019-06-20T20:32:45.205Z,6.15
2019-06-20T20:35:16.142Z,6.28
2019-06-20T20:37:46.774Z,6.15
2019-06-20T20:40:17.508Z,5.97
2019-06-20T20:42:47.706Z,4.78
2019-06-20T20:45:20.547Z,5.10
2019-06-20T20:47:51.048Z,4.10
2019-06-20T20:50:22.037Z,4.70
2019-06-20T20:52:55.426Z,4.10
2019-06-20T20:55:29.106Z,3.37
2019-06-20T20:58:03.711Z,3.92
2019-06-20T21:00:48.282Z,4.25
2019-06-20T21:03:22.075Z,3.75
2019-06-20T21:05:53.132Z,3.80
2019-06-20T21:08:24.863Z,3.50
2019-06-20T21:10:55.979Z,4.22
2019-06-20T21:13:28.668Z,3.70
2019-06-20T21:16:02.067Z,4.00
2019-06-20T21:18:32.414Z,4.50
2019-06-20T21:21:08.725Z,4.80
2019-06-20T21:23:44.675Z,5.00
2019-06-20T21:26:18.569Z,5.12
2019-06-20T21:28:48.711Z,5.20
2019-06-20T21:31:18.770Z,5.03
2019-06-20T21:33:48.770Z,4.35
2019-06-20T21:36:19.037Z,5.47
2019-06-20T21:38:49.189Z,5.20
2019-06-20T21:41:19.459Z,5.47
2019-06-20T21:43:49.699Z,5.12
2019-06-20T21:46:20.209Z,4.75
2019-06-20T21:48:50.457Z,6.17
2019-06-20T21:51:20.600Z,4.67
2019-06-20T21:53:50.622Z,4.92
2019-06-20T21:56:20.869Z,4.75
2019-06-20T21:58:51.112Z,4.50
2019-06-20T22:01:21.732Z,4.72
2019-06-20T22:03:53.178Z,4.53
2019-06-20T22:06:24.253Z,5.55
2019-06-20T22:08:54.488Z,4.85
2019-06-20T22:11:24.693Z,5.05
2019-06-20T22:13:55.194Z,5.45
2019-06-20T22:16:25.511Z,5.22
2019-06-20T22:18:55.720Z,5.12
2019-06-20T22:21:25.626Z,5.20
2019-06-20T22:23:55.692Z,4.95
2019-06-20T22:26:25.898Z,5.70
2019-06-20T22:28:56.083Z,5.00
2019-06-20T22:31:26.367Z,5.00
2019-06-20T22:33:57.719Z,4.92
2019-06-20T22:36:39.567Z,5.50
2019-06-20T22:38:59.815Z,5.37
2019-06-20T22:41:29.969Z,5.05
2019-06-20T22:44:00.034Z,4.95
2019-06-20T22:46:30.271Z,4.87
2019-06-20T22:49:00.296Z,5.40
2019-06-20T22:51:30.401Z,6.00
2019-06-20T22:54:00.546Z,5.00
2019-06-20T22:56:30.821Z,5.50
2019-06-20T22:59:01.050Z,5.15
2019-06-20T23:01:31.158Z,5.03
2019-06-20T23:04:01.410Z,5.35
2019-06-20T23:06:31.608Z,5.35
2019-06-20T23:09:01.708Z,5.58
2019-06-20T23:11:33.400Z,5.12
2019-06-20T23:14:03.699Z,4.60
2019-06-20T23:16:33.824Z,6.00
2019-06-20T23:19:03.867Z,5.95
2019-06-20T23:21:33.808Z,5.78
2019-06-20T23:24:03.986Z,5.90
2019-06-20T23:26:34.634Z,6.97
2019-06-20T23:29:23.843Z,6.03
2019-06-20T23:31:56.052Z,6.35
2019-06-20T23:34:26.292Z,6.70
2019-06-20T23:37:11.635Z,6.83
2019-06-20T23:39:28.541Z,7.40
2019-06-20T23:41:58.868Z,6.97
2019-06-20T23:44:28.967Z,7.40
2019-06-20T23:46:58.904Z,6.33
2019-06-20T23:49:29.093Z,6.65
2019-06-20T23:52:08.503Z,7.22
2019-06-20T23:54:38.621Z,7.12
2019-06-20T23:57:08.777Z,7.03
2019-06-20T23:59:38.961Z,7.55
